sensor_id;sensor_type;location;lat;lon;timestamp;pressure;altitude;pressure_sealevel;temperature;humidity
68376;BME280;55318;52.068;5.188;2023-03-04T00:00:09;102724.0;;;7.95;71.47
68376;BME280;55318;52.068;5.188;2023-03-04T00:01:46;102729.0;;;8.11;71.16
68376;BME280;55318;52.068;5.188;2023-03-04T00:04:59;102725.0;;;7.95;71.37
68376;BME280;55318;52.068;5.188;2023-03-04T00:06:35;102730.0;;;7.97;71.41
68376;BME280;55318;52.068;5.188;2023-03-04T00:08:11;102730.0;;;7.87;71.63
68376;BME280;55318;52.068;5.188;2023-03-04T00:11:23;102732.0;;;8.02;71.36
68376;BME280;55318;52.068;5.188;2023-03-04T00:12:59;102731.0;;;7.79;72.16
68376;BME280;55318;52.068;5.188;2023-03-04T00:14:35;102727.0;;;8.1;71.69
68376;BME280;55318;52.068;5.188;2023-03-04T00:17:48;102728.0;;;8.14;71.7
68376;BME280;55318;52.068;5.188;2023-03-04T00:19:24;102729.0;;;8.18;71.17
68376;BME280;55318;52.068;5.188;2023-03-04T00:21:00;102730.0;;;8.31;70.83
68376;BME280;55318;52.068;5.188;2023-03-04T00:22:36;102730.0;;;8.28;70.98
68376;BME280;55318;52.068;5.188;2023-03-04T00:25:48;102731.0;;;8.36;70.94
68376;BME280;55318;52.068;5.188;2023-03-04T00:27:24;102731.0;;;8.31;71.16
68376;BME280;55318;52.068;5.188;2023-03-04T00:29:00;102729.0;;;8.25;71.3
68376;BME280;55318;52.068;5.188;2023-03-04T00:32:13;102730.0;;;8.15;71.16
68376;BME280;55318;52.068;5.188;2023-03-04T00:33:49;102733.0;;;8.18;71.19
68376;BME280;55318;52.068;5.188;2023-03-04T00:35:25;102729.0;;;8.23;70.66
68376;BME280;55318;52.068;5.188;2023-03-04T00:38:38;102733.99999999999;;;8.24;70.78
68376;BME280;55318;52.068;5.188;2023-03-04T00:40:14;102724.0;;;8.11;70.97
68376;BME280;55318;52.068;5.188;2023-03-04T00:41:50;102731.0;;;8.26;70.74
68376;BME280;55318;52.068;5.188;2023-03-04T00:45:02;102725.0;;;8.42;70.34
68376;BME280;55318;52.068;5.188;2023-03-04T00:46:39;102729.0;;;8.15;70.99
68376;BME280;55318;52.068;5.188;2023-03-04T00:48:15;102728.0;;;8.22;70.94
68376;BME280;55318;52.068;5.188;2023-03-04T00:49:51;102728.0;;;8.14;71.3
68376;BME280;55318;52.068;5.188;2023-03-04T00:53:04;102729.0;;;8.25;70.81
68376;BME280;55318;52.068;5.188;2023-03-04T00:54:41;102739.00000000001;;;7.91;71.86
68376;BME280;55318;52.068;5.188;2023-03-04T00:56:17;102732.0;;;7.85;72.33
68376;BME280;55318;52.068;5.188;2023-03-04T00:59:29;102732.0;;;7.97;71.61
68376;BME280;55318;52.068;5.188;2023-03-04T01:01:05;102734.99999999999;;;7.94;71.58
68376;BME280;55318;52.068;5.188;2023-03-04T01:02:42;102739.00000000001;;;8.25;71.03
68376;BME280;55318;52.068;5.188;2023-03-04T01:05:55;102734.99999999999;;;8.23;70.8
68376;BME280;55318;52.068;5.188;2023-03-04T01:07:31;102733.0;;;8.23;70.95
68376;BME280;55318;52.068;5.188;2023-03-04T01:09:07;102734.99999999999;;;7.99;71.78
68376;BME280;55318;52.068;5.188;2023-03-04T01:10:43;102729.0;;;8.02;71.86
68376;BME280;55318;52.068;5.188;2023-03-04T01:13:56;102728.0;;;8.05;71.83
68376;BME280;55318;52.068;5.188;2023-03-04T01:15:32;102729.0;;;8.14;71.41
68376;BME280;55318;52.068;5.188;2023-03-04T01:17:08;102727.0;;;7.96;71.3
68376;BME280;55318;52.068;5.188;2023-03-04T01:20:20;102732.0;;;7.87;71.34
68376;BME280;55318;52.068;5.188;2023-03-04T01:21:56;102733.0;;;8.17;71.09
68376;BME280;55318;52.068;5.188;2023-03-04T01:23:32;102732.0;;;8.13;71.05
68376;BME280;55318;52.068;5.188;2023-03-04T01:26:46;102734.99999999999;;;8.3;71.27
68376;BME280;55318;52.068;5.188;2023-03-04T01:28:23;102727.0;;;8.0;71.52
68376;BME280;55318;52.068;5.188;2023-03-04T01:29:59;102727.0;;;7.78;70.95
68376;BME280;55318;52.068;5.188;2023-03-04T01:33:11;102722.0;;;7.98;71.16
68376;BME280;55318;52.068;5.188;2023-03-04T01:34:47;102718.0;;;8.09;70.61
68376;BME280;55318;52.068;5.188;2023-03-04T01:36:24;102709.99999999999;;;7.9;70.61
68376;BME280;55318;52.068;5.188;2023-03-04T01:38:00;102711.99999999999;;;8.07;70.55
68376;BME280;55318;52.068;5.188;2023-03-04T01:41:13;102707.0;;;8.05;70.5
68376;BME280;55318;52.068;5.188;2023-03-04T01:42:52;102701.0;;;7.79;71.61
68376;BME280;55318;52.068;5.188;2023-03-04T01:44:28;102698.0;;;7.7;71.62
68376;BME280;55318;52.068;5.188;2023-03-04T01:47:43;102699.0;;;7.87;71.41
68376;BME280;55318;52.068;5.188;2023-03-04T01:49:22;102698.0;;;7.87;70.97
68376;BME280;55318;52.068;5.188;2023-03-04T01:50:58;102695.0;;;7.89;71.08
68376;BME280;55318;52.068;5.188;2023-03-04T01:52:35;102700.0;;;7.88;71.47
68376;BME280;55318;52.068;5.188;2023-03-04T01:56:00;102692.0;;;8.05;71.13
68376;BME280;55318;52.068;5.188;2023-03-04T01:57:38;102692.0;;;7.86;71.94
68376;BME280;55318;52.068;5.188;2023-03-04T01:59:17;102692.0;;;8.01;71.25
68376;BME280;55318;52.068;5.188;2023-03-04T02:02:31;102683.99999999999;;;7.76;71.3
68376;BME280;55318;52.068;5.188;2023-03-04T02:04:09;102683.99999999999;;;8.08;70.83
68376;BME280;55318;52.068;5.188;2023-03-04T02:05:47;102680.0;;;7.98;71.23
68376;BME280;55318;52.068;5.188;2023-03-04T02:07:24;102682.0;;;7.99;70.72
68376;BME280;55318;52.068;5.188;2023-03-04T02:10:37;102676.0;;;7.87;70.44
68376;BME280;55318;52.068;5.188;2023-03-04T02:12:14;102678.0;;;7.89;70.61
68376;BME280;55318;52.068;5.188;2023-03-04T02:13:50;102678.0;;;8.03;70.53
68376;BME280;55318;52.068;5.188;2023-03-04T02:17:08;102672.0;;;8.07;70.44
68376;BME280;55318;52.068;5.188;2023-03-04T02:18:45;102667.0;;;8.07;70.12
68376;BME280;55318;52.068;5.188;2023-03-04T02:20:33;102665.00000000001;;;8.08;69.83
68376;BME280;55318;52.068;5.188;2023-03-04T02:22:13;102664.00000000001;;;7.97;70.37
68376;BME280;55318;52.068;5.188;2023-03-04T02:25:40;102664.00000000001;;;7.9;70.05
68376;BME280;55318;52.068;5.188;2023-03-04T02:27:20;102653.0;;;8.05;69.91
68376;BME280;55318;52.068;5.188;2023-03-04T02:28:58;102656.0;;;8.03;69.84
68376;BME280;55318;52.068;5.188;2023-03-04T02:30:34;102649.0;;;7.98;70.02
68376;BME280;55318;52.068;5.188;2023-03-04T02:33:49;102650.0;;;7.75;69.77
68376;BME280;55318;52.068;5.188;2023-03-04T02:35:26;102653.0;;;7.98;69.56
68376;BME280;55318;52.068;5.188;2023-03-04T02:37:02;102653.0;;;7.96;69.87
68376;BME280;55318;52.068;5.188;2023-03-04T02:38:39;102646.0;;;7.95;69.83
68376;BME280;55318;52.068;5.188;2023-03-04T02:42:00;102652.0;;;8.14;69.52
68376;BME280;55318;52.068;5.188;2023-03-04T02:43:37;102645.0;;;8.13;69.5
68376;BME280;55318;52.068;5.188;2023-03-04T02:45:33;102642.0;;;8.06;69.48
68376;BME280;55318;52.068;5.188;2023-03-04T02:47:12;102638.00000000001;;;8.03;69.72
68376;BME280;55318;52.068;5.188;2023-03-04T02:50:29;102642.0;;;8.08;69.19
68376;BME280;55318;52.068;5.188;2023-03-04T02:52:09;102631.0;;;8.06;69.36
68376;BME280;55318;52.068;5.188;2023-03-04T02:53:47;102633.99999999999;;;7.88;70.27
68376;BME280;55318;52.068;5.188;2023-03-04T02:55:23;102632.0;;;7.99;69.84
68376;BME280;55318;52.068;5.188;2023-03-04T02:58:39;102633.0;;;8.03;69.52
68376;BME280;55318;52.068;5.188;2023-03-04T03:00:15;102634.99999999999;;;8.06;69.3
68376;BME280;55318;52.068;5.188;2023-03-04T03:01:51;102638.00000000001;;;8.14;69.16
68376;BME280;55318;52.068;5.188;2023-03-04T03:05:05;102638.00000000001;;;8.18;68.92
68376;BME280;55318;52.068;5.188;2023-03-04T03:06:42;102640.00000000001;;;7.96;69.33
68376;BME280;55318;52.068;5.188;2023-03-04T03:08:19;102630.0;;;7.89;69.36
68376;BME280;55318;52.068;5.188;2023-03-04T03:11:31;102630.0;;;7.99;69.52
68376;BME280;55318;52.068;5.188;2023-03-04T03:13:07;102629.0;;;7.74;69.91
68376;BME280;55318;52.068;5.188;2023-03-04T03:14:43;102629.0;;;7.94;69.41
68376;BME280;55318;52.068;5.188;2023-03-04T03:16:19;102630.0;;;7.72;70.02
68376;BME280;55318;52.068;5.188;2023-03-04T03:19:32;102627.0;;;7.81;70.0
68376;BME280;55318;52.068;5.188;2023-03-04T03:21:09;102625.0;;;7.98;69.56
68376;BME280;55318;52.068;5.188;2023-03-04T03:22:45;102622.0;;;7.8;69.95
68376;BME280;55318;52.068;5.188;2023-03-04T03:25:58;102622.0;;;8.03;69.55
68376;BME280;55318;52.068;5.188;2023-03-04T03:27:34;102621.0;;;7.9;69.58
68376;BME280;55318;52.068;5.188;2023-03-04T03:29:10;102623.0;;;8.06;69.49
68376;BME280;55318;52.068;5.188;2023-03-04T03:32:23;102616.00000000001;;;8.06;69.86
68376;BME280;55318;52.068;5.188;2023-03-04T03:33:59;102617.0;;;7.95;69.98
68376;BME280;55318;52.068;5.188;2023-03-04T03:35:35;102617.0;;;7.85;70.22
68376;BME280;55318;52.068;5.188;2023-03-04T03:37:11;102616.00000000001;;;7.94;70.16
68376;BME280;55318;52.068;5.188;2023-03-04T03:40:24;102616.00000000001;;;8.09;69.72
68376;BME280;55318;52.068;5.188;2023-03-04T03:42:01;102616.00000000001;;;8.1;69.83
68376;BME280;55318;52.068;5.188;2023-03-04T03:43:37;102615.00000000001;;;8.02;70.08
68376;BME280;55318;52.068;5.188;2023-03-04T03:46:49;102617.0;;;8.17;69.67
68376;BME280;55318;52.068;5.188;2023-03-04T03:48:25;102614.00000000001;;;8.07;70.08
68376;BME280;55318;52.068;5.188;2023-03-04T03:50:02;102613.00000000001;;;8.1;70.2
68376;BME280;55318;52.068;5.188;2023-03-04T03:53:15;102614.00000000001;;;8.16;70.09
68376;BME280;55318;52.068;5.188;2023-03-04T03:54:51;102617.0;;;8.15;70.03
68376;BME280;55318;52.068;5.188;2023-03-04T03:56:27;102616.00000000001;;;8.26;69.55
68376;BME280;55318;52.068;5.188;2023-03-04T03:59:39;102619.0;;;8.32;69.48
68376;BME280;55318;52.068;5.188;2023-03-04T04:01:15;102622.0;;;8.09;70.36
68376;BME280;55318;52.068;5.188;2023-03-04T04:02:52;102621.0;;;8.05;70.75
68376;BME280;55318;52.068;5.188;2023-03-04T04:04:29;102620.0;;;8.27;70.23
68376;BME280;55318;52.068;5.188;2023-03-04T04:07:42;102621.0;;;8.07;70.8
68376;BME280;55318;52.068;5.188;2023-03-04T04:09:18;102621.0;;;8.01;71.33
68376;BME280;55318;52.068;5.188;2023-03-04T04:10:54;102620.0;;;8.11;71.28
68376;BME280;55318;52.068;5.188;2023-03-04T04:14:08;102628.0;;;8.24;71.02
68376;BME280;55318;52.068;5.188;2023-03-04T04:15:46;102626.0;;;8.06;71.73
68376;BME280;55318;52.068;5.188;2023-03-04T04:17:22;102622.0;;;7.97;71.74
68376;BME280;55318;52.068;5.188;2023-03-04T04:20:35;102628.0;;;8.07;71.88
68376;BME280;55318;52.068;5.188;2023-03-04T04:22:13;102623.0;;;8.09;71.84
68376;BME280;55318;52.068;5.188;2023-03-04T04:23:50;102627.0;;;7.7;72.92
68376;BME280;55318;52.068;5.188;2023-03-04T04:25:27;102625.0;;;7.83;72.95
68376;BME280;55318;52.068;5.188;2023-03-04T04:28:39;102626.0;;;7.74;73.17
68376;BME280;55318;52.068;5.188;2023-03-04T04:30:16;102631.0;;;7.78;73.62
68376;BME280;55318;52.068;5.188;2023-03-04T04:31:52;102629.0;;;7.81;73.49
68376;BME280;55318;52.068;5.188;2023-03-04T04:35:06;102633.0;;;7.63;74.49
68376;BME280;55318;52.068;5.188;2023-03-04T04:36:43;102629.0;;;7.7;74.44
68376;BME280;55318;52.068;5.188;2023-03-04T04:38:19;102632.0;;;7.56;74.99
68376;BME280;55318;52.068;5.188;2023-03-04T04:39:55;102630.0;;;7.73;74.75
68376;BME280;55318;52.068;5.188;2023-03-04T04:43:12;102628.0;;;7.7;74.66
68376;BME280;55318;52.068;5.188;2023-03-04T04:44:49;102631.0;;;7.82;74.66
68376;BME280;55318;52.068;5.188;2023-03-04T04:46:25;102629.0;;;7.95;74.08
68376;BME280;55318;52.068;5.188;2023-03-04T04:49:38;102633.0;;;7.9;74.31
68376;BME280;55318;52.068;5.188;2023-03-04T04:51:14;102630.0;;;7.99;73.91
68376;BME280;55318;52.068;5.188;2023-03-04T04:52:50;102628.0;;;7.95;73.8
68376;BME280;55318;52.068;5.188;2023-03-04T04:56:13;102626.0;;;7.94;74.05
68376;BME280;55318;52.068;5.188;2023-03-04T04:57:49;102628.0;;;7.97;73.87
68376;BME280;55318;52.068;5.188;2023-03-04T04:59:26;102624.0;;;7.94;73.83
68376;BME280;55318;52.068;5.188;2023-03-04T05:01:02;102627.0;;;8.08;73.69
68376;BME280;55318;52.068;5.188;2023-03-04T05:04:15;102631.0;;;8.02;73.81
68376;BME280;55318;52.068;5.188;2023-03-04T05:05:51;102626.0;;;7.97;74.09
68376;BME280;55318;52.068;5.188;2023-03-04T05:07:27;102626.0;;;8.06;73.87
68376;BME280;55318;52.068;5.188;2023-03-04T05:10:39;102623.0;;;7.95;74.25
68376;BME280;55318;52.068;5.188;2023-03-04T05:12:16;102626.0;;;7.97;74.45
68376;BME280;55318;52.068;5.188;2023-03-04T05:13:52;102624.0;;;7.98;74.44
68376;BME280;55318;52.068;5.188;2023-03-04T05:15:29;102629.0;;;7.92;74.97
68376;BME280;55318;52.068;5.188;2023-03-04T05:18:41;102626.0;;;7.88;75.3
68376;BME280;55318;52.068;5.188;2023-03-04T05:20:17;102630.0;;;7.77;75.66
68376;BME280;55318;52.068;5.188;2023-03-04T05:21:53;102627.0;;;7.99;75.19
68376;BME280;55318;52.068;5.188;2023-03-04T05:25:09;102631.0;;;7.86;75.61
68376;BME280;55318;52.068;5.188;2023-03-04T05:26:45;102633.0;;;7.79;75.77
68376;BME280;55318;52.068;5.188;2023-03-04T05:28:21;102631.0;;;7.92;75.38
68376;BME280;55318;52.068;5.188;2023-03-04T05:31:34;102633.0;;;7.87;75.55
68376;BME280;55318;52.068;5.188;2023-03-04T05:33:12;102630.0;;;7.74;76.22
68376;BME280;55318;52.068;5.188;2023-03-04T05:34:50;102632.0;;;7.86;75.78
68376;BME280;55318;52.068;5.188;2023-03-04T05:36:26;102633.0;;;7.91;75.39
68376;BME280;55318;52.068;5.188;2023-03-04T05:39:39;102640.00000000001;;;7.89;75.33
68376;BME280;55318;52.068;5.188;2023-03-04T05:41:15;102641.00000000001;;;7.94;75.33
68376;BME280;55318;52.068;5.188;2023-03-04T05:42:51;102634.99999999999;;;8.05;75.24
68376;BME280;55318;52.068;5.188;2023-03-04T05:46:04;102633.99999999999;;;7.94;75.86
68376;BME280;55318;52.068;5.188;2023-03-04T05:47:40;102638.00000000001;;;7.86;76.69
68376;BME280;55318;52.068;5.188;2023-03-04T05:49:16;102633.99999999999;;;7.87;76.39
68376;BME280;55318;52.068;5.188;2023-03-04T05:52:29;102633.0;;;7.96;76.41
68376;BME280;55318;52.068;5.188;2023-03-04T05:54:06;102628.0;;;7.94;76.55
68376;BME280;55318;52.068;5.188;2023-03-04T05:55:45;102633.99999999999;;;7.59;77.58
68376;BME280;55318;52.068;5.188;2023-03-04T05:57:21;102633.99999999999;;;7.86;77.03
68376;BME280;55318;52.068;5.188;2023-03-04T06:00:34;102628.0;;;7.9;77.27
68376;BME280;55318;52.068;5.188;2023-03-04T06:02:10;102627.0;;;7.89;77.22
68376;BME280;55318;52.068;5.188;2023-03-04T06:03:46;102626.0;;;7.94;77.08
68376;BME280;55318;52.068;5.188;2023-03-04T06:06:59;102630.0;;;7.89;77.36
68376;BME280;55318;52.068;5.188;2023-03-04T06:08:35;102630.0;;;7.81;77.3
68376;BME280;55318;52.068;5.188;2023-03-04T06:10:13;102631.0;;;7.83;77.06
68376;BME280;55318;52.068;5.188;2023-03-04T06:13:27;102633.0;;;7.83;76.99
68376;BME280;55318;52.068;5.188;2023-03-04T06:15:03;102633.99999999999;;;7.69;77.05
68376;BME280;55318;52.068;5.188;2023-03-04T06:16:40;102630.0;;;7.85;76.58
68376;BME280;55318;52.068;5.188;2023-03-04T06:18:16;102627.0;;;7.91;76.12
68376;BME280;55318;52.068;5.188;2023-03-04T06:21:28;102631.0;;;7.84;76.59
68376;BME280;55318;52.068;5.188;2023-03-04T06:23:05;102621.0;;;7.99;76.08
68376;BME280;55318;52.068;5.188;2023-03-04T06:24:42;102626.0;;;7.81;76.58
68376;BME280;55318;52.068;5.188;2023-03-04T06:27:54;102628.0;;;7.69;77.11
68376;BME280;55318;52.068;5.188;2023-03-04T06:29:30;102630.0;;;7.68;77.62
68376;BME280;55318;52.068;5.188;2023-03-04T06:31:07;102632.0;;;7.89;77.38
68376;BME280;55318;52.068;5.188;2023-03-04T06:34:20;102629.0;;;8.0;76.91
68376;BME280;55318;52.068;5.188;2023-03-04T06:35:56;102633.0;;;7.86;77.56
68376;BME280;55318;52.068;5.188;2023-03-04T06:37:32;102632.0;;;7.97;77.16
68376;BME280;55318;52.068;5.188;2023-03-04T06:39:09;102633.99999999999;;;7.94;77.13
68376;BME280;55318;52.068;5.188;2023-03-04T06:42:21;102634.99999999999;;;7.98;77.17
68376;BME280;55318;52.068;5.188;2023-03-04T06:43:57;102638.00000000001;;;7.95;77.19
68376;BME280;55318;52.068;5.188;2023-03-04T06:45:33;102638.00000000001;;;7.94;77.38
68376;BME280;55318;52.068;5.188;2023-03-04T06:48:45;102634.99999999999;;;8.11;76.94
68376;BME280;55318;52.068;5.188;2023-03-04T06:50:22;102632.0;;;8.01;77.02
68376;BME280;55318;52.068;5.188;2023-03-04T06:51:59;102633.99999999999;;;7.97;77.55
68376;BME280;55318;52.068;5.188;2023-03-04T06:55:12;102636.99999999999;;;7.91;77.36
68376;BME280;55318;52.068;5.188;2023-03-04T06:56:48;102633.0;;;7.94;77.16
68376;BME280;55318;52.068;5.188;2023-03-04T06:58:24;102634.99999999999;;;8.05;77.27
68376;BME280;55318;52.068;5.188;2023-03-04T07:01:37;102636.99999999999;;;7.94;77.33
68376;BME280;55318;52.068;5.188;2023-03-04T07:03:13;102641.00000000001;;;7.99;77.25
68376;BME280;55318;52.068;5.188;2023-03-04T07:04:49;102646.0;;;8.05;76.77
68376;BME280;55318;52.068;5.188;2023-03-04T07:06:26;102643.0;;;8.14;76.63
68376;BME280;55318;52.068;5.188;2023-03-04T07:09:39;102645.0;;;8.15;76.41
68376;BME280;55318;52.068;5.188;2023-03-04T07:11:18;102650.0;;;8.24;76.39
68376;BME280;55318;52.068;5.188;2023-03-04T07:12:55;102648.0;;;8.13;76.62
68376;BME280;55318;52.068;5.188;2023-03-04T07:16:09;102653.0;;;8.06;77.09
68376;BME280;55318;52.068;5.188;2023-03-04T07:17:47;102652.0;;;8.03;77.7
68376;BME280;55318;52.068;5.188;2023-03-04T07:19:23;102654.0;;;7.96;78.81
68376;BME280;55318;52.068;5.188;2023-03-04T07:21:00;102653.0;;;8.06;78.61
68376;BME280;55318;52.068;5.188;2023-03-04T07:24:12;102655.0;;;7.78;79.33
68376;BME280;55318;52.068;5.188;2023-03-04T07:25:50;102656.0;;;7.95;78.97
68376;BME280;55318;52.068;5.188;2023-03-04T07:27:26;102658.99999999999;;;7.86;79.27
68376;BME280;55318;52.068;5.188;2023-03-04T07:30:39;102656.0;;;7.89;79.14
68376;BME280;55318;52.068;5.188;2023-03-04T07:32:16;102656.0;;;7.92;79.11
68376;BME280;55318;52.068;5.188;2023-03-04T07:33:55;102647.0;;;7.99;78.8
68376;BME280;55318;52.068;5.188;2023-03-04T07:37:08;102656.0;;;7.99;78.58
68376;BME280;55318;52.068;5.188;2023-03-04T07:38:45;102654.0;;;8.03;78.67
68376;BME280;55318;52.068;5.188;2023-03-04T07:40:22;102656.0;;;8.1;78.61
68376;BME280;55318;52.068;5.188;2023-03-04T07:41:58;102658.99999999999;;;8.24;78.36
68376;BME280;55318;52.068;5.188;2023-03-04T07:45:11;102664.00000000001;;;8.16;78.59
68376;BME280;55318;52.068;5.188;2023-03-04T07:46:47;102665.00000000001;;;8.39;77.88
68376;BME280;55318;52.068;5.188;2023-03-04T07:48:23;102667.0;;;8.36;77.95
68376;BME280;55318;52.068;5.188;2023-03-04T07:51:36;102655.0;;;8.19;78.73
68376;BME280;55318;52.068;5.188;2023-03-04T07:53:12;102663.00000000001;;;8.28;78.72
68376;BME280;55318;52.068;5.188;2023-03-04T07:54:49;102659.99999999999;;;8.33;79.24
68376;BME280;55318;52.068;5.188;2023-03-04T07:58:04;102667.0;;;8.39;78.7
68376;BME280;55318;52.068;5.188;2023-03-04T07:59:40;102667.0;;;8.44;78.94
68376;BME280;55318;52.068;5.188;2023-03-04T08:01:18;102668.0;;;8.48;78.7
68376;BME280;55318;52.068;5.188;2023-03-04T08:02:55;102672.0;;;8.49;78.63
68376;BME280;55318;52.068;5.188;2023-03-04T08:06:10;102667.0;;;8.49;78.66
68376;BME280;55318;52.068;5.188;2023-03-04T08:07:47;102667.0;;;8.36;78.67
68376;BME280;55318;52.068;5.188;2023-03-04T08:09:23;102668.0;;;8.64;77.91
68376;BME280;55318;52.068;5.188;2023-03-04T08:12:39;102667.0;;;8.73;77.72
68376;BME280;55318;52.068;5.188;2023-03-04T08:14:15;102671.0;;;8.73;77.58
68376;BME280;55318;52.068;5.188;2023-03-04T08:15:54;102673.0;;;8.69;77.11
68376;BME280;55318;52.068;5.188;2023-03-04T08:17:31;102677.0;;;8.57;77.77
68376;BME280;55318;52.068;5.188;2023-03-04T08:20:44;102676.0;;;8.64;77.17
68376;BME280;55318;52.068;5.188;2023-03-04T08:22:21;102683.0;;;8.66;77.03
68376;BME280;55318;52.068;5.188;2023-03-04T08:23:59;102677.0;;;8.81;76.94
68376;BME280;55318;52.068;5.188;2023-03-04T08:27:14;102678.0;;;8.85;77.24
68376;BME280;55318;52.068;5.188;2023-03-04T08:28:51;102681.0;;;9.05;76.72
68376;BME280;55318;52.068;5.188;2023-03-04T08:30:27;102683.0;;;8.86;76.89
68376;BME280;55318;52.068;5.188;2023-03-04T08:33:40;102686.99999999999;;;8.99;76.56
68376;BME280;55318;52.068;5.188;2023-03-04T08:35:16;102682.0;;;8.67;76.91
68376;BME280;55318;52.068;5.188;2023-03-04T08:36:52;102683.0;;;8.89;76.58
68376;BME280;55318;52.068;5.188;2023-03-04T08:38:29;102683.99999999999;;;8.76;77.0
68376;BME280;55318;52.068;5.188;2023-03-04T08:41:44;102682.0;;;8.76;77.33
68376;BME280;55318;52.068;5.188;2023-03-04T08:43:22;102684.99999999999;;;8.97;77.08
68376;BME280;55318;52.068;5.188;2023-03-04T08:44:59;102683.0;;;9.11;76.74
68376;BME280;55318;52.068;5.188;2023-03-04T08:48:13;102681.0;;;9.06;76.37
68376;BME280;55318;52.068;5.188;2023-03-04T08:49:52;102682.0;;;9.14;76.33
68376;BME280;55318;52.068;5.188;2023-03-04T08:51:28;102683.0;;;9.03;76.22
68376;BME280;55318;52.068;5.188;2023-03-04T08:53:04;102677.0;;;9.23;76.33
68376;BME280;55318;52.068;5.188;2023-03-04T08:56:17;102677.0;;;9.23;76.09
68376;BME280;55318;52.068;5.188;2023-03-04T08:57:54;102671.0;;;9.34;75.73
68376;BME280;55318;52.068;5.188;2023-03-04T08:59:30;102674.0;;;9.34;75.53
68376;BME280;55318;52.068;5.188;2023-03-04T09:02:44;102671.0;;;9.34;75.64
68376;BME280;55318;52.068;5.188;2023-03-04T09:04:20;102671.0;;;9.48;75.8
68376;BME280;55318;52.068;5.188;2023-03-04T09:05:56;102670.0;;;9.57;75.24
68376;BME280;55318;52.068;5.188;2023-03-04T09:09:09;102670.0;;;9.53;75.14
68376;BME280;55318;52.068;5.188;2023-03-04T09:10:46;102667.0;;;9.65;74.97
68376;BME280;55318;52.068;5.188;2023-03-04T09:12:22;102664.00000000001;;;9.56;75.22
68376;BME280;55318;52.068;5.188;2023-03-04T09:13:58;102667.0;;;9.72;74.92
68376;BME280;55318;52.068;5.188;2023-03-04T09:17:10;102668.0;;;9.52;75.08
68376;BME280;55318;52.068;5.188;2023-03-04T09:18:47;102663.00000000001;;;9.57;75.41
68376;BME280;55318;52.068;5.188;2023-03-04T09:20:23;102665.00000000001;;;9.66;75.69
68376;BME280;55318;52.068;5.188;2023-03-04T09:23:36;102664.00000000001;;;9.59;77.2
68376;BME280;55318;52.068;5.188;2023-03-04T09:25:13;102668.0;;;9.81;77.55
68376;BME280;55318;52.068;5.188;2023-03-04T09:26:50;102669.0;;;9.71;78.59
68376;BME280;55318;52.068;5.188;2023-03-04T09:30:03;102666.00000000001;;;9.39;79.3
68376;BME280;55318;52.068;5.188;2023-03-04T09:31:40;102667.0;;;9.56;79.39
68376;BME280;55318;52.068;5.188;2023-03-04T09:33:16;102668.0;;;9.57;79.95
68376;BME280;55318;52.068;5.188;2023-03-04T09:34:53;102667.0;;;9.25;80.78
68376;BME280;55318;52.068;5.188;2023-03-04T09:38:06;102658.0;;;9.41;80.36
68376;BME280;55318;52.068;5.188;2023-03-04T09:39:42;102664.00000000001;;;9.5;80.28
68376;BME280;55318;52.068;5.188;2023-03-04T09:41:21;102659.99999999999;;;9.64;80.33
68376;BME280;55318;52.068;5.188;2023-03-04T09:44:40;102664.00000000001;;;9.6;79.92
68376;BME280;55318;52.068;5.188;2023-03-04T09:46:22;102663.00000000001;;;9.36;80.41
68376;BME280;55318;52.068;5.188;2023-03-04T09:48:03;102665.00000000001;;;9.39;80.69
68376;BME280;55318;52.068;5.188;2023-03-04T09:49:44;102658.0;;;9.49;81.2
68376;BME280;55318;52.068;5.188;2023-03-04T09:53:22;102658.0;;;9.22;82.74
68376;BME280;55318;52.068;5.188;2023-03-04T09:55:16;102654.0;;;9.51;81.77
68376;BME280;55318;52.068;5.188;2023-03-04T09:56:59;102653.0;;;9.51;82.12
68376;BME280;55318;52.068;5.188;2023-03-04T09:58:47;102654.0;;;9.59;82.25
68376;BME280;55318;52.068;5.188;2023-03-04T10:00:33;102654.0;;;9.68;81.67
68376;BME280;55318;52.068;5.188;2023-03-04T10:02:17;102647.0;;;9.9;81.62
68376;BME280;55318;52.068;5.188;2023-03-04T10:05:42;102649.0;;;10.16;82.32
68376;BME280;55318;52.068;5.188;2023-03-04T10:07:25;102652.0;;;10.19;80.69
68376;BME280;55318;52.068;5.188;2023-03-04T10:09:14;102658.99999999999;;;10.25;79.3
68376;BME280;55318;52.068;5.188;2023-03-04T10:10:54;102656.0;;;10.02;80.14
68376;BME280;55318;52.068;5.188;2023-03-04T10:12:33;102658.0;;;9.85;80.8
68376;BME280;55318;52.068;5.188;2023-03-04T10:16:13;102663.00000000001;;;9.92;82.62
68376;BME280;55318;52.068;5.188;2023-03-04T10:17:56;102655.0;;;9.85;83.57
68376;BME280;55318;52.068;5.188;2023-03-04T10:19:48;102651.0;;;9.73;84.09
68376;BME280;55318;52.068;5.188;2023-03-04T10:21:31;102648.0;;;9.92;83.75
68376;BME280;55318;52.068;5.188;2023-03-04T10:23:13;102646.0;;;9.73;84.09
68376;BME280;55318;52.068;5.188;2023-03-04T10:26:32;102645.0;;;9.91;85.3
68376;BME280;55318;52.068;5.188;2023-03-04T10:28:11;102642.0;;;10.05;85.4
68376;BME280;55318;52.068;5.188;2023-03-04T10:29:51;102639.00000000001;;;10.06;86.0
68376;BME280;55318;52.068;5.188;2023-03-04T10:31:31;102638.00000000001;;;10.06;85.94
68376;BME280;55318;52.068;5.188;2023-03-04T10:34:48;102641.00000000001;;;10.26;86.2
68376;BME280;55318;52.068;5.188;2023-03-04T10:36:35;102641.00000000001;;;10.32;83.99
68376;BME280;55318;52.068;5.188;2023-03-04T10:38:20;102629.0;;;10.54;82.72
68376;BME280;55318;52.068;5.188;2023-03-04T10:40:00;102633.0;;;10.53;81.03
68376;BME280;55318;52.068;5.188;2023-03-04T10:43:19;102633.99999999999;;;10.59;80.16
68376;BME280;55318;52.068;5.188;2023-03-04T10:44:58;102634.99999999999;;;10.24;79.88
68376;BME280;55318;52.068;5.188;2023-03-04T10:46:37;102633.99999999999;;;10.16;80.58
68376;BME280;55318;52.068;5.188;2023-03-04T10:48:18;102641.00000000001;;;10.19;81.3
68376;BME280;55318;52.068;5.188;2023-03-04T10:51:42;102640.00000000001;;;10.39;81.11